sensor_id;sensor_type;location;lat;lon;timestamp;P1;durP1;ratioP1;P2;durP2;ratioP2
32228;SDS011;18717;48.034;11.186;2023-02-24T00:01:42;17.48;;;14.18;;
32228;SDS011;18717;48.034;11.186;2023-02-24T00:04:14;19.80;;;14.77;;
32228;SDS011;18717;48.034;11.186;2023-02-24T00:06:42;23.35;;;14.75;;
32228;SDS011;18717;48.034;11.186;2023-02-24T00:09:11;16.67;;;13.73;;
32228;SDS011;18717;48.034;11.186;2023-02-24T00:11:42;19.50;;;13.73;;
32228;SDS011;18717;48.034;11.186;2023-02-24T00:14:13;17.35;;;14.32;;
32228;SDS011;18717;48.034;11.186;2023-02-24T00:16:42;20.58;;;14.82;;
32228;SDS011;18717;48.034;11.186;2023-02-24T00:19:11;23.30;;;14.05;;
32228;SDS011;18717;48.034;11.186;2023-02-24T00:21:39;21.63;;;14.60;;
32228;SDS011;18717;48.034;11.186;2023-02-24T00:24:07;16.92;;;13.55;;
32228;SDS011;18717;48.034;11.186;2023-02-24T00:26:35;14.52;;;13.05;;
32228;SDS011;18717;48.034;11.186;2023-02-24T00:29:03;19.05;;;13.10;;
32228;SDS011;18717;48.034;11.186;2023-02-24T00:31:33;14.30;;;12.68;;
32228;SDS011;18717;48.034;11.186;2023-02-24T00:34:05;17.10;;;13.05;;
32228;SDS011;18717;48.034;11.186;2023-02-24T00:36:33;16.17;;;11.70;;
32228;SDS011;18717;48.034;11.186;2023-02-24T00:39:01;15.82;;;12.77;;
32228;SDS011;18717;48.034;11.186;2023-02-24T00:41:35;15.57;;;12.60;;
32228;SDS011;18717;48.034;11.186;2023-02-24T00:44:04;14.02;;;12.60;;
32228;SDS011;18717;48.034;11.186;2023-02-24T00:46:36;17.77;;;13.23;;
32228;SDS011;18717;48.034;11.186;2023-02-24T00:49:06;18.75;;;11.98;;
32228;SDS011;18717;48.034;11.186;2023-02-24T00:51:36;45.58;;;12.30;;
32228;SDS011;18717;48.034;11.186;2023-02-24T00:54:05;73.30;;;13.20;;
32228;SDS011;18717;48.034;11.186;2023-02-24T00:56:33;42.28;;;11.73;;
32228;SDS011;18717;48.034;11.186;2023-02-24T00:59:01;97.97;;;14.90;;
32228;SDS011;18717;48.034;11.186;2023-02-24T01:01:30;100.43;;;14.45;;
32228;SDS011;18717;48.034;11.186;2023-02-24T01:04:00;151.70;;;17.80;;
32228;SDS011;18717;48.034;11.186;2023-02-24T01:06:31;72.60;;;13.52;;
32228;SDS011;18717;48.034;11.186;2023-02-24T01:09:00;32.63;;;12.65;;
32228;SDS011;18717;48.034;11.186;2023-02-24T01:11:31;22.60;;;13.88;;
32228;SDS011;18717;48.034;11.186;2023-02-24T01:14:18;16.55;;;12.43;;
32228;SDS011;18717;48.034;11.186;2023-02-24T01:16:47;20.50;;;13.15;;
32228;SDS011;18717;48.034;11.186;2023-02-24T01:19:17;17.15;;;12.98;;
32228;SDS011;18717;48.034;11.186;2023-02-24T01:21:45;18.85;;;13.05;;
32228;SDS011;18717;48.034;11.186;2023-02-24T01:24:13;14.60;;;12.40;;
32228;SDS011;18717;48.034;11.186;2023-02-24T01:26:41;14.30;;;12.70;;
32228;SDS011;18717;48.034;11.186;2023-02-24T01:29:09;13.95;;;12.38;;
32228;SDS011;18717;48.034;11.186;2023-02-24T01:31:36;16.48;;;12.70;;
32228;SDS011;18717;48.034;11.186;2023-02-24T01:34:08;14.30;;;12.18;;
32228;SDS011;18717;48.034;11.186;2023-02-24T01:36:39;14.63;;;12.40;;
32228;SDS011;18717;48.034;11.186;2023-02-24T01:39:09;18.45;;;12.38;;
32228;SDS011;18717;48.034;11.186;2023-02-24T01:41:39;19.30;;;12.63;;
32228;SDS011;18717;48.034;11.186;2023-02-24T01:47:20;242.55;;;19.77;;
32228;SDS011;18717;48.034;11.186;2023-02-24T01:49:48;29.80;;;12.52;;
32228;SDS011;18717;48.034;11.186;2023-02-24T01:52:19;16.48;;;11.57;;
32228;SDS011;18717;48.034;11.186;2023-02-24T01:54:50;13.85;;;11.90;;
32228;SDS011;18717;48.034;11.186;2023-02-24T01:57:21;361.67;;;23.95;;
32228;SDS011;18717;48.034;11.186;2023-02-24T01:59:51;173.70;;;17.48;;
32228;SDS011;18717;48.034;11.186;2023-02-24T02:02:20;27.58;;;13.15;;
32228;SDS011;18717;48.034;11.186;2023-02-24T02:04:50;15.35;;;11.88;;
32228;SDS011;18717;48.034;11.186;2023-02-24T02:07:22;34.85;;;13.23;;
32228;SDS011;18717;48.034;11.186;2023-02-24T02:09:51;35.78;;;13.32;;
32228;SDS011;18717;48.034;11.186;2023-02-24T02:12:20;50.60;;;12.90;;
32228;SDS011;18717;48.034;11.186;2023-02-24T02:14:48;173.43;;;18.15;;
32228;SDS011;18717;48.034;11.186;2023-02-24T02:17:20;121.15;;;14.82;;
32228;SDS011;18717;48.034;11.186;2023-02-24T02:20:04;43.17;;;11.75;;
32228;SDS011;18717;48.034;11.186;2023-02-24T02:22:50;31.67;;;11.77;;
32228;SDS011;18717;48.034;11.186;2023-02-24T02:25:26;52.17;;;11.95;;
32228;SDS011;18717;48.034;11.186;2023-02-24T02:28:05;79.03;;;12.00;;
32228;SDS011;18717;48.034;11.186;2023-02-24T02:30:53;35.58;;;11.10;;
32228;SDS011;18717;48.034;11.186;2023-02-24T02:33:48;65.03;;;13.65;;
32228;SDS011;18717;48.034;11.186;2023-02-24T02:36:29;70.90;;;12.52;;
32228;SDS011;18717;48.034;11.186;2023-02-24T02:39:01;47.25;;;12.45;;
32228;SDS011;18717;48.034;11.186;2023-02-24T02:41:40;20.88;;;11.35;;
32228;SDS011;18717;48.034;11.186;2023-02-24T02:44:13;95.13;;;13.45;;
32228;SDS011;18717;48.034;11.186;2023-02-24T02:46:46;64.22;;;11.82;;
32228;SDS011;18717;48.034;11.186;2023-02-24T02:49:18;11.75;;;10.35;;
32228;SDS011;18717;48.034;11.186;2023-02-24T02:54:19;13.52;;;10.82;;
32228;SDS011;18717;48.034;11.186;2023-02-24T02:56:54;13.80;;;10.95;;
32228;SDS011;18717;48.034;11.186;2023-02-24T02:59:24;46.42;;;12.05;;
32228;SDS011;18717;48.034;11.186;2023-02-24T03:01:53;17.48;;;11.30;;
32228;SDS011;18717;48.034;11.186;2023-02-24T03:04:27;25.48;;;11.70;;
32228;SDS011;18717;48.034;11.186;2023-02-24T03:06:56;26.50;;;11.50;;
32228;SDS011;18717;48.034;11.186;2023-02-24T03:09:26;13.45;;;11.50;;
32228;SDS011;18717;48.034;11.186;2023-02-24T03:11:56;23.30;;;11.20;;
32228;SDS011;18717;48.034;11.186;2023-02-24T03:14:26;18.83;;;11.05;;
32228;SDS011;18717;48.034;11.186;2023-02-24T03:16:55;36.38;;;12.52;;
32228;SDS011;18717;48.034;11.186;2023-02-24T03:19:25;13.18;;;10.80;;
32228;SDS011;18717;48.034;11.186;2023-02-24T03:21:57;19.58;;;11.60;;
32228;SDS011;18717;48.034;11.186;2023-02-24T03:24:27;14.60;;;11.43;;
32228;SDS011;18717;48.034;11.186;2023-02-24T03:26:56;15.05;;;12.02;;
32228;SDS011;18717;48.034;11.186;2023-02-24T03:29:33;15.15;;;11.90;;
32228;SDS011;18717;48.034;11.186;2023-02-24T03:32:06;13.50;;;11.45;;
32228;SDS011;18717;48.034;11.186;2023-02-24T03:34:44;12.65;;;10.48;;
32228;SDS011;18717;48.034;11.186;2023-02-24T03:37:15;15.25;;;12.82;;
32228;SDS011;18717;48.034;11.186;2023-02-24T03:39:50;12.32;;;11.07;;
32228;SDS011;18717;48.034;11.186;2023-02-24T03:42:19;25.67;;;10.18;;
32228;SDS011;18717;48.034;11.186;2023-02-24T03:44:48;21.90;;;11.40;;
32228;SDS011;18717;48.034;11.186;2023-02-24T03:47:16;44.22;;;11.70;;
32228;SDS011;18717;48.034;11.186;2023-02-24T03:49:47;14.48;;;10.80;;
32228;SDS011;18717;48.034;11.186;2023-02-24T03:52:18;15.80;;;11.52;;
32228;SDS011;18717;48.034;11.186;2023-02-24T03:54:55;18.25;;;12.23;;
32228;SDS011;18717;48.034;11.186;2023-02-24T03:57:33;13.70;;;11.48;;
32228;SDS011;18717;48.034;11.186;2023-02-24T04:00:20;16.95;;;11.52;;
32228;SDS011;18717;48.034;11.186;2023-02-24T04:02:53;13.57;;;11.35;;
32228;SDS011;18717;48.034;11.186;2023-02-24T04:05:26;12.80;;;10.50;;
32228;SDS011;18717;48.034;11.186;2023-02-24T04:07:56;11.00;;;10.00;;
32228;SDS011;18717;48.034;11.186;2023-02-24T04:10:27;11.87;;;10.63;;
32228;SDS011;18717;48.034;11.186;2023-02-24T04:12:59;11.15;;;10.05;;
32228;SDS011;18717;48.034;11.186;2023-02-24T04:15:30;16.50;;;10.88;;
32228;SDS011;18717;48.034;11.186;2023-02-24T04:18:03;11.93;;;10.43;;
32228;SDS011;18717;48.034;11.186;2023-02-24T04:20:34;13.65;;;10.15;;
32228;SDS011;18717;48.034;11.186;2023-02-24T04:23:05;23.98;;;10.43;;
32228;SDS011;18717;48.034;11.186;2023-02-24T04:25:34;16.27;;;12.60;;
32228;SDS011;18717;48.034;11.186;2023-02-24T04:28:03;12.85;;;10.63;;
32228;SDS011;18717;48.034;11.186;2023-02-24T04:30:33;17.95;;;10.80;;
32228;SDS011;18717;48.034;11.186;2023-02-24T04:33:02;16.80;;;12.15;;
32228;SDS011;18717;48.034;11.186;2023-02-24T04:35:30;14.18;;;10.68;;
32228;SDS011;18717;48.034;11.186;2023-02-24T04:38:00;11.73;;;10.52;;
32228;SDS011;18717;48.034;11.186;2023-02-24T04:40:28;11.98;;;10.40;;
32228;SDS011;18717;48.034;11.186;2023-02-24T04:42:56;14.77;;;10.55;;
32228;SDS011;18717;48.034;11.186;2023-02-24T04:45:25;16.00;;;10.68;;
32228;SDS011;18717;48.034;11.186;2023-02-24T04:47:55;11.43;;;10.32;;
32228;SDS011;18717;48.034;11.186;2023-02-24T04:50:27;11.60;;;9.82;;
32228;SDS011;18717;48.034;11.186;2023-02-24T04:52:57;10.98;;;9.88;;
32228;SDS011;18717;48.034;11.186;2023-02-24T04:55:29;18.05;;;11.52;;
32228;SDS011;18717;48.034;11.186;2023-02-24T04:57:58;12.85;;;10.63;;
32228;SDS011;18717;48.034;11.186;2023-02-24T05:00:27;32.42;;;11.35;;
32228;SDS011;18717;48.034;11.186;2023-02-24T05:03:01;14.68;;;11.02;;
32228;SDS011;18717;48.034;11.186;2023-02-24T05:05:30;14.00;;;10.73;;
32228;SDS011;18717;48.034;11.186;2023-02-24T05:08:00;17.05;;;11.15;;
32228;SDS011;18717;48.034;11.186;2023-02-24T05:10:33;15.57;;;10.27;;
32228;SDS011;18717;48.034;11.186;2023-02-24T05:13:03;13.55;;;10.75;;
32228;SDS011;18717;48.034;11.186;2023-02-24T05:15:32;13.52;;;11.20;;
32228;SDS011;18717;48.034;11.186;2023-02-24T05:18:00;14.27;;;10.52;;
32228;SDS011;18717;48.034;11.186;2023-02-24T05:20:34;12.13;;;10.75;;
32228;SDS011;18717;48.034;11.186;2023-02-24T05:23:23;18.92;;;12.02;;
32228;SDS011;18717;48.034;11.186;2023-02-24T05:25:52;15.23;;;11.20;;
32228;SDS011;18717;48.034;11.186;2023-02-24T05:28:21;15.05;;;11.35;;
32228;SDS011;18717;48.034;11.186;2023-02-24T05:30:49;12.50;;;11.18;;
32228;SDS011;18717;48.034;11.186;2023-02-24T05:33:18;13.93;;;11.45;;
32228;SDS011;18717;48.034;11.186;2023-02-24T05:35:47;10.77;;;9.60;;
32228;SDS011;18717;48.034;11.186;2023-02-24T05:38:16;12.15;;;10.57;;
32228;SDS011;18717;48.034;11.186;2023-02-24T05:40:44;13.15;;;11.30;;
32228;SDS011;18717;48.034;11.186;2023-02-24T05:43:15;12.65;;;10.63;;
32228;SDS011;18717;48.034;11.186;2023-02-24T05:45:44;11.75;;;10.55;;
32228;SDS011;18717;48.034;11.186;2023-02-24T05:48:12;13.18;;;11.52;;
32228;SDS011;18717;48.034;11.186;2023-02-24T05:50:40;14.35;;;10.52;;
32228;SDS011;18717;48.034;11.186;2023-02-24T05:53:11;11.65;;;10.45;;
32228;SDS011;18717;48.034;11.186;2023-02-24T05:55:39;19.52;;;11.77;;
32228;SDS011;18717;48.034;11.186;2023-02-24T05:58:08;13.35;;;11.95;;
32228;SDS011;18717;48.034;11.186;2023-02-24T06:00:37;17.63;;;13.90;;
32228;SDS011;18717;48.034;11.186;2023-02-24T06:03:11;12.50;;;11.20;;
32228;SDS011;18717;48.034;11.186;2023-02-24T06:05:42;24.88;;;13.27;;
32228;SDS011;18717;48.034;11.186;2023-02-24T06:08:10;20.67;;;12.75;;
32228;SDS011;18717;48.034;11.186;2023-02-24T06:10:38;19.05;;;13.73;;
32228;SDS011;18717;48.034;11.186;2023-02-24T06:13:06;16.15;;;12.13;;
32228;SDS011;18717;48.034;11.186;2023-02-24T06:15:35;14.98;;;11.20;;
32228;SDS011;18717;48.034;11.186;2023-02-24T06:18:05;12.20;;;10.10;;
32228;SDS011;18717;48.034;11.186;2023-02-24T06:20:36;12.95;;;10.23;;
32228;SDS011;18717;48.034;11.186;2023-02-24T06:23:05;13.43;;;10.95;;
32228;SDS011;18717;48.034;11.186;2023-02-24T06:25:34;16.80;;;12.40;;
32228;SDS011;18717;48.034;11.186;2023-02-24T06:28:03;12.25;;;10.98;;
32228;SDS011;18717;48.034;11.186;2023-02-24T06:30:31;14.73;;;11.38;;
32228;SDS011;18717;48.034;11.186;2023-02-24T06:33:00;13.75;;;10.32;;
32228;SDS011;18717;48.034;11.186;2023-02-24T06:35:29;15.48;;;10.18;;
32228;SDS011;18717;48.034;11.186;2023-02-24T06:37:58;12.30;;;9.27;;
32228;SDS011;18717;48.034;11.186;2023-02-24T06:40:25;10.32;;;9.27;;
32228;SDS011;18717;48.034;11.186;2023-02-24T06:42:53;11.65;;;10.52;;
32228;SDS011;18717;48.034;11.186;2023-02-24T06:45:21;27.65;;;17.02;;
32228;SDS011;18717;48.034;11.186;2023-02-24T06:47:51;35.10;;;21.35;;
32228;SDS011;18717;48.034;11.186;2023-02-24T06:50:19;20.27;;;16.25;;
32228;SDS011;18717;48.034;11.186;2023-02-24T06:52:48;22.85;;;14.98;;
32228;SDS011;18717;48.034;11.186;2023-02-24T06:55:18;14.82;;;9.63;;
32228;SDS011;18717;48.034;11.186;2023-02-24T06:57:52;18.85;;;11.85;;
32228;SDS011;18717;48.034;11.186;2023-02-24T07:00:26;13.98;;;11.20;;
32228;SDS011;18717;48.034;11.186;2023-02-24T07:03:04;12.57;;;10.52;;
32228;SDS011;18717;48.034;11.186;2023-02-24T07:05:40;12.30;;;10.65;;
32228;SDS011;18717;48.034;11.186;2023-02-24T07:08:16;12.77;;;10.82;;
32228;SDS011;18717;48.034;11.186;2023-02-24T07:10:50;19.52;;;14.13;;
32228;SDS011;18717;48.034;11.186;2023-02-24T07:13:18;18.92;;;13.43;;
32228;SDS011;18717;48.034;11.186;2023-02-24T07:15:46;18.38;;;14.02;;
32228;SDS011;18717;48.034;11.186;2023-02-24T07:18:15;16.48;;;12.50;;
32228;SDS011;18717;48.034;11.186;2023-02-24T07:20:43;14.70;;;12.25;;
32228;SDS011;18717;48.034;11.186;2023-02-24T07:23:12;22.98;;;13.73;;
32228;SDS011;18717;48.034;11.186;2023-02-24T07:25:42;19.08;;;12.77;;
32228;SDS011;18717;48.034;11.186;2023-02-24T07:28:11;19.48;;;12.88;;
32228;SDS011;18717;48.034;11.186;2023-02-24T07:30:40;17.48;;;13.18;;
32228;SDS011;18717;48.034;11.186;2023-02-24T07:33:08;23.25;;;16.65;;
32228;SDS011;18717;48.034;11.186;2023-02-24T07:35:35;18.42;;;13.98;;
32228;SDS011;18717;48.034;11.186;2023-02-24T07:38:06;17.90;;;13.05;;
32228;SDS011;18717;48.034;11.186;2023-02-24T07:40:34;18.45;;;13.88;;
32228;SDS011;18717;48.034;11.186;2023-02-24T07:43:03;15.52;;;12.50;;
32228;SDS011;18717;48.034;11.186;2023-02-24T07:45:32;37.40;;;17.92;;
32228;SDS011;18717;48.034;11.186;2023-02-24T07:48:01;32.35;;;17.40;;
32228;SDS011;18717;48.034;11.186;2023-02-24T07:50:29;18.65;;;12.25;;
32228;SDS011;18717;48.034;11.186;2023-02-24T07:52:58;14.65;;;11.20;;
32228;SDS011;18717;48.034;11.186;2023-02-24T07:55:29;16.30;;;11.48;;
32228;SDS011;18717;48.034;11.186;2023-02-24T07:57:56;15.90;;;11.30;;
32228;SDS011;18717;48.034;11.186;2023-02-24T08:00:28;47.63;;;22.95;;
32228;SDS011;18717;48.034;11.186;2023-02-24T08:02:56;47.15;;;22.58;;
32228;SDS011;18717;48.034;11.186;2023-02-24T08:05:25;25.60;;;16.95;;
32228;SDS011;18717;48.034;11.186;2023-02-24T08:07:53;13.48;;;11.93;;
32228;SDS011;18717;48.034;11.186;2023-02-24T08:10:22;17.38;;;12.52;;
32228;SDS011;18717;48.034;11.186;2023-02-24T08:12:53;20.90;;;13.25;;
32228;SDS011;18717;48.034;11.186;2023-02-24T08:15:22;17.92;;;12.30;;
32228;SDS011;18717;48.034;11.186;2023-02-24T08:17:53;21.95;;;13.40;;
32228;SDS011;18717;48.034;11.186;2023-02-24T08:20:24;40.90;;;21.25;;
32228;SDS011;18717;48.034;11.186;2023-02-24T08:22:55;67.93;;;27.80;;
32228;SDS011;18717;48.034;11.186;2023-02-24T08:25:23;34.10;;;18.85;;
32228;SDS011;18717;48.034;11.186;2023-02-24T08:28:01;55.55;;;26.52;;
32228;SDS011;18717;48.034;11.186;2023-02-24T08:30:34;38.17;;;18.88;;
32228;SDS011;18717;48.034;11.186;2023-02-24T08:33:07;15.23;;;11.98;;
32228;SDS011;18717;48.034;11.186;2023-02-24T08:35:37;16.85;;;12.93;;
32228;SDS011;18717;48.034;11.186;2023-02-24T08:38:11;32.67;;;17.80;;
32228;SDS011;18717;48.034;11.186;2023-02-24T08:40:41;21.00;;;14.05;;
32228;SDS011;18717;48.034;11.186;2023-02-24T08:43:21;20.30;;;13.98;;
32228;SDS011;18717;48.034;11.186;2023-02-24T08:46:01;26.10;;;13.88;;
32228;SDS011;18717;48.034;11.186;2023-02-24T08:48:37;21.58;;;13.77;;
32228;SDS011;18717;48.034;11.186;2023-02-24T08:53:37;13.50;;;11.55;;
32228;SDS011;18717;48.034;11.186;2023-02-24T08:56:07;14.20;;;10.98;;
32228;SDS011;18717;48.034;11.186;2023-02-24T08:58:37;14.57;;;12.30;;
32228;SDS011;18717;48.034;11.186;2023-02-24T09:01:13;14.93;;;12.07;;
32228;SDS011;18717;48.034;11.186;2023-02-24T09:03:51;13.65;;;11.65;;
32228;SDS011;18717;48.034;11.186;2023-02-24T09:06:23;20.55;;;12.30;;
32228;SDS011;18717;48.034;11.186;2023-02-24T09:08:54;18.92;;;12.77;;
32228;SDS011;18717;48.034;11.186;2023-02-24T09:11:43;17.67;;;14.15;;
32228;SDS011;18717;48.034;11.186;2023-02-24T09:14:12;21.00;;;14.15;;
32228;SDS011;18717;48.034;11.186;2023-02-24T09:16:52;14.85;;;12.20;;
32228;SDS011;18717;48.034;11.186;2023-02-24T09:19:31;16.50;;;12.32;;
32228;SDS011;18717;48.034;11.186;2023-02-24T09:22:22;14.95;;;13.27;;
32228;SDS011;18717;48.034;11.186;2023-02-24T09:24:58;16.80;;;12.70;;
32228;SDS011;18717;48.034;11.186;2023-02-24T09:27:49;19.10;;;13.68;;
32228;SDS011;18717;48.034;11.186;2023-02-24T09:30:22;20.57;;;14.40;;
32228;SDS011;18717;48.034;11.186;2023-02-24T09:33:05;12.88;;;10.40;;
32228;SDS011;18717;48.034;11.186;2023-02-24T09:35:48;20.90;;;13.48;;
32228;SDS011;18717;48.034;11.186;2023-02-24T09:38:18;17.52;;;13.63;;
32228;SDS011;18717;48.034;11.186;2023-02-24T09:40:50;18.67;;;12.88;;
32228;SDS011;18717;48.034;11.186;2023-02-24T09:43:19;20.17;;;14.27;;
32228;SDS011;18717;48.034;11.186;2023-02-24T09:45:51;20.58;;;12.90;;
32228;SDS011;18717;48.034;11.186;2023-02-24T09:48:25;27.13;;;14.85;;
32228;SDS011;18717;48.034;11.186;2023-02-24T09:50:59;18.10;;;13.98;;
32228;SDS011;18717;48.034;11.186;2023-02-24T09:56:09;19.50;;;14.40;;
32228;SDS011;18717;48.034;11.186;2023-02-24T09:58:43;19.60;;;14.48;;
32228;SDS011;18717;48.034;11.186;2023-02-24T10:01:24;19.52;;;15.65;;
32228;SDS011;18717;48.034;11.186;2023-02-24T10:04:00;22.05;;;14.85;;
32228;SDS011;18717;48.034;11.186;2023-02-24T10:06:47;17.83;;;14.93;;
32228;SDS011;18717;48.034;11.186;2023-02-24T10:09:17;20.92;;;15.02;;
32228;SDS011;18717;48.034;11.186;2023-02-24T10:11:50;18.98;;;13.98;;
32228;SDS011;18717;48.034;11.186;2023-02-24T10:14:22;16.48;;;13.48;;
32228;SDS011;18717;48.034;11.186;2023-02-24T10:17:09;18.52;;;14.38;;
32228;SDS011;18717;48.034;11.186;2023-02-24T10:19:52;16.15;;;14.20;;
32228;SDS011;18717;48.034;11.186;2023-02-24T10:22:29;23.15;;;13.82;;
32228;SDS011;18717;48.034;11.186;2023-02-24T10:25:12;16.13;;;13.35;;
32228;SDS011;18717;48.034;11.186;2023-02-24T10:27:54;14.18;;;12.88;;
32228;SDS011;18717;48.034;11.186;2023-02-24T10:30:32;18.33;;;12.98;;
32228;SDS011;18717;48.034;11.186;2023-02-24T10:33:13;16.77;;;14.02;;
32228;SDS011;18717;48.034;11.186;2023-02-24T10:35:44;14.55;;;13.05;;
32228;SDS011;18717;48.034;11.186;2023-02-24T10:38:13;16.25;;;12.88;;
32228;SDS011;18717;48.034;11.186;2023-02-24T10:40:45;19.95;;;13.55;;
32228;SDS011;18717;48.034;11.186;2023-02-24T10:43:16;16.42;;;14.55;;
32228;SDS011;18717;48.034;11.186;2023-02-24T10:45:45;18.98;;;15.43;;
32228;SDS011;18717;48.034;11.186;2023-02-24T10:48:17;16.67;;;14.75;;
32228;SDS011;18717;48.034;11.186;2023-02-24T10:53:36;15.50;;;13.68;;
32228;SDS011;18717;48.034;11.186;2023-02-24T10:56:05;21.73;;;13.70;;
32228;SDS011;18717;48.034;11.186;2023-02-24T10:58:59;16.23;;;13.52;;
32228;SDS011;18717;48.034;11.186;2023-02-24T11:01:49;15.15;;;13.70;;
32228;SDS011;18717;48.034;11.186;2023-02-24T11:04:29;19.38;;;14.48;;
32228;SDS011;18717;48.034;11.186;2023-02-24T11:07:19;20.15;;;14.30;;
32228;SDS011;18717;48.034;11.186;2023-02-24T11:10:15;15.38;;;13.80;;
32228;SDS011;18717;48.034;11.186;2023-02-24T11:12:51;18.50;;;13.75;;
32228;SDS011;18717;48.034;11.186;2023-02-24T11:15:40;19.02;;;14.02;;
32228;SDS011;18717;48.034;11.186;2023-02-24T11:18:27;18.27;;;13.00;;
32228;SDS011;18717;48.034;11.186;2023-02-24T11:20:56;17.77;;;13.40;;
32228;SDS011;18717;48.034;11.186;2023-02-24T11:23:26;27.77;;;13.32;;
32228;SDS011;18717;48.034;11.186;2023-02-24T11:25:58;15.90;;;13.13;;
32228;SDS011;18717;48.034;11.186;2023-02-24T11:28:34;18.17;;;14.90;;
32228;SDS011;18717;48.034;11.186;2023-02-24T11:31:16;18.95;;;14.40;;
32228;SDS011;18717;48.034;11.186;2023-02-24T11:33:53;24.15;;;14.30;;
32228;SDS011;18717;48.034;11.186;2023-02-24T11:36:27;18.65;;;14.52;;
32228;SDS011;18717;48.034;11.186;2023-02-24T11:39:06;24.10;;;14.93;;
32228;SDS011;18717;48.034;11.186;2023-02-24T11:41:48;22.85;;;17.13;;
32228;SDS011;18717;48.034;11.186;2023-02-24T11:44:19;19.50;;;13.95;;
32228;SDS011;18717;48.034;11.186;2023-02-24T11:46:54;15.93;;;14.48;;
32228;SDS011;18717;48.034;11.186;2023-02-24T11:49:26;23.52;;;14.88;;
32228;SDS011;18717;48.034;11.186;2023-02-24T11:51:55;20.23;;;14.23;;
32228;SDS011;18717;48.034;11.186;2023-02-24T11:54:26;23.40;;;15.95;;
32228;SDS011;18717;48.034;11.186;2023-02-24T11:56:58;15.93;;;13.85;;
32228;SDS011;18717;48.034;11.186;2023-02-24T11:59:28;17.33;;;15.40;;
32228;SDS011;18717;48.034;11.186;2023-02-24T12:02:00;23.05;;;15.23;;
32228;SDS011;18717;48.034;11.186;2023-02-24T12:04:31;16.13;;;14.38;;
32228;SDS011;18717;48.034;11.186;2023-02-24T12:07:03;20.15;;;14.88;;
32228;SDS011;18717;48.034;11.186;2023-02-24T12:09:35;22.13;;;14.73;;
32228;SDS011;18717;48.034;11.186;2023-02-24T12:12:10;18.75;;;15.05;;
32228;SDS011;18717;48.034;11.186;2023-02-24T12:14:40;21.63;;;16.20;;
32228;SDS011;18717;48.034;11.186;2023-02-24T12:17:15;31.80;;;15.23;;
32228;SDS011;18717;48.034;11.186;2023-02-24T12:22:32;20.83;;;15.13;;
32228;SDS011;18717;48.034;11.186;2023-02-24T12:25:10;22.33;;;15.65;;
32228;SDS011;18717;48.034;11.186;2023-02-24T12:27:43;19.92;;;14.85;;
32228;SDS011;18717;48.034;11.186;2023-02-24T12:30:27;21.85;;;16.40;;
32228;SDS011;18717;48.034;11.186;2023-02-24T12:33:18;24.73;;;14.52;;
32228;SDS011;18717;48.034;11.186;2023-02-24T12:35:54;22.95;;;16.92;;
32228;SDS011;18717;48.034;11.186;2023-02-24T12:38:37;20.05;;;16.73;;
32228;SDS011;18717;48.034;11.186;2023-02-24T12:41:15;25.40;;;17.35;;
32228;SDS011;18717;48.034;11.186;2023-02-24T12:43:54;23.98;;;17.33;;
32228;SDS011;18717;48.034;11.186;2023-02-24T12:46:26;26.88;;;17.90;;
32228;SDS011;18717;48.034;11.186;2023-02-24T12:49:03;19.40;;;16.20;;
32228;SDS011;18717;48.034;11.186;2023-02-24T12:51:40;35.00;;;18.80;;
32228;SDS011;18717;48.034;11.186;2023-02-24T12:54:17;20.80;;;17.48;;
32228;SDS011;18717;48.034;11.186;2023-02-24T12:56:50;25.65;;;17.48;;
32228;SDS011;18717;48.034;11.186;2023-02-24T12:59:24;25.25;;;18.17;;
32228;SDS011;18717;48.034;11.186;2023-02-24T13:01:54;23.10;;;17.35;;
32228;SDS011;18717;48.034;11.186;2023-02-24T13:04:28;27.70;;;17.83;;
32228;SDS011;18717;48.034;11.186;2023-02-24T13:07:11;25.30;;;19.05;;
32228;SDS011;18717;48.034;11.186;2023-02-24T13:09:53;26.67;;;17.85;;
32228;SDS011;18717;48.034;11.186;2023-02-24T13:12:32;28.63;;;18.08;;
32228;SDS011;18717;48.034;11.186;2023-02-24T13:15:05;28.58;;;19.17;;
32228;SDS011;18717;48.034;11.186;2023-02-24T13:17:44;25.60;;;16.98;;
32228;SDS011;18717;48.034;11.186;2023-02-24T13:20:24;32.17;;;19.33;;
32228;SDS011;18717;48.034;11.186;2023-02-24T13:22:53;22.77;;;17.33;;
32228;SDS011;18717;48.034;11.186;2023-02-24T13:25:28;27.15;;;17.45;;
32228;SDS011;18717;48.034;11.186;2023-02-24T13:27:58;26.23;;;18.77;;
32228;SDS011;18717;48.034;11.186;2023-02-24T13:30:38;27.75;;;18.25;;
32228;SDS011;18717;48.034;11.186;2023-02-24T13:33:20;23.98;;;18.05;;
32228;SDS011;18717;48.034;11.186;2023-02-24T13:35:50;21.63;;;17.23;;
32228;SDS011;18717;48.034;11.186;2023-02-24T13:38:22;24.38;;;18.55;;
32228;SDS011;18717;48.034;11.186;2023-02-24T13:40:52;24.90;;;18.42;;
32228;SDS011;18717;48.034;11.186;2023-02-24T13:43:21;27.85;;;18.80;;
32228;SDS011;18717;48.034;11.186;2023-02-24T13:45:57;28.30;;;18.35;;
32228;SDS011;18717;48.034;11.186;2023-02-24T13:48:30;27.13;;;17.35;;
32228;SDS011;18717;48.034;11.186;2023-02-24T13:51:13;26.15;;;19.00;;
32228;SDS011;18717;48.034;11.186;2023-02-24T13:53:55;27.20;;;19.27;;
32228;SDS011;18717;48.034;11.186;2023-02-24T13:56:33;24.98;;;18.10;;
32228;SDS011;18717;48.034;11.186;2023-02-24T13:59:19;25.20;;;17.75;;
32228;SDS011;18717;48.034;11.186;2023-02-24T14:01:57;28.15;;;19.17;;
32228;SDS011;18717;48.034;11.186;2023-02-24T14:04:26;25.58;;;19.25;;
32228;SDS011;18717;48.034;11.186;2023-02-24T14:06:55;27.85;;;19.48;;
32228;SDS011;18717;48.034;11.186;2023-02-24T14:09:25;29.73;;;19.52;;
32228;SDS011;18717;48.034;11.186;2023-02-24T14:11:56;25.17;;;19.73;;
32228;SDS011;18717;48.034;11.186;2023-02-24T14:14:25;36.67;;;17.92;;
32228;SDS011;18717;48.034;11.186;2023-02-24T14:16:53;28.45;;;18.50;;
32228;SDS011;18717;48.034;11.186;2023-02-24T14:19:23;25.98;;;19.25;;
32228;SDS011;18717;48.034;11.186;2023-02-24T14:21:52;28.40;;;19.63;;
32228;SDS011;18717;48.034;11.186;2023-02-24T14:24:21;36.45;;;20.80;;
32228;SDS011;18717;48.034;11.186;2023-02-24T14:26:49;35.35;;;22.35;;
32228;SDS011;18717;48.034;11.186;2023-02-24T14:29:19;36.67;;;20.88;;
32228;SDS011;18717;48.034;11.186;2023-02-24T14:31:50;37.72;;;21.33;;
32228;SDS011;18717;48.034;11.186;2023-02-24T14:34:20;30.88;;;22.23;;
32228;SDS011;18717;48.034;11.186;2023-02-24T14:36:50;31.40;;;20.67;;
32228;SDS011;18717;48.034;11.186;2023-02-24T14:39:20;33.83;;;21.38;;
32228;SDS011;18717;48.034;11.186;2023-02-24T14:41:49;28.50;;;20.55;;
32228;SDS011;18717;48.034;11.186;2023-02-24T14:44:20;29.98;;;21.23;;
32228;SDS011;18717;48.034;11.186;2023-02-24T14:46:49;31.80;;;22.33;;
32228;SDS011;18717;48.034;11.186;2023-02-24T14:49:19;35.95;;;24.10;;
32228;SDS011;18717;48.034;11.186;2023-02-24T14:54:21;34.95;;;23.38;;
32228;SDS011;18717;48.034;11.186;2023-02-24T14:56:53;35.15;;;22.23;;
32228;SDS011;18717;48.034;11.186;2023-02-24T14:59:22;33.03;;;23.20;;